Time;durP1;ratioP1;P1;durP2;ratioP2;P2;SDS_P1;SDS_P2;PMS_P1;PMS_P2;Temp;Humidity;BMP_temperature;BMP_pressure;BME280_temperature;BME280_humidity;BME280_pressure;Samples;Min_cycle;Max_cycle;Signal;HPM_P1;HPM_P2
2021/12/02 00:01:15;;;;;;;16.35;7.88;;;-0.10;70.80;;;;;;5058808;28;20037;-33
2021/12/02 00:03:41;;;;;;;19.50;7.93;;;-0.10;70.80;;;;;;5058425;28;20036;-33
2021/12/02 00:06:10;;;;;;;15.40;7.18;;;0.00;70.80;;;;;;5058744;28;20037;-45
2021/12/02 00:08:36;;;;;;;15.98;7.35;;;0.00;70.80;;;;;;5058360;28;20565;-32
2021/12/02 00:11:03;;;;;;;17.05;8.38;;;0.00;70.80;;;;;;5057667;28;20057;-45
2021/12/02 00:13:31;;;;;;;17.15;7.78;;;0.00;70.90;;;;;;5058117;28;20025;-33
2021/12/02 00:16:04;;;;;;;14.98;7.50;;;0.00;70.80;;;;;;5058295;28;20031;-33
2021/12/02 00:21:03;;;;;;;12.90;7.18;;;0.00;70.70;;;;;;5058443;28;20364;-33
2021/12/02 00:21:22;;;;;;;18.40;8.30;;;0.10;70.70;;;;;;5058152;28;20036;-34
2021/12/02 00:24:03;;;;;;;18.17;7.50;;;0.10;70.60;;;;;;5058200;28;20029;-36
2021/12/02 00:26:30;;;;;;;17.38;8.57;;;0.10;70.60;;;;;;5058092;28;20025;-45
2021/12/02 00:28:58;;;;;;;19.48;8.68;;;0.00;70.50;;;;;;5058280;28;20059;-46
2021/12/02 00:31:30;;;;;;;20.00;9.15;;;0.00;70.50;;;;;;5058108;28;20475;-33
2021/12/02 00:33:59;;;;;;;25.88;10.93;;;0.00;70.60;;;;;;5058045;28;20061;-38
2021/12/02 00:36:27;;;;;;;23.48;10.30;;;0.00;70.60;;;;;;5057963;28;20025;-33
2021/12/02 00:38:54;;;;;;;20.25;10.02;;;0.00;70.70;;;;;;5058158;28;20412;-45
2021/12/02 00:41:23;;;;;;;22.52;10.95;;;-0.10;70.70;;;;;;5057979;28;20036;-39
2021/12/02 00:43:52;;;;;;;20.27;9.82;;;-0.10;70.80;;;;;;5058048;28;20083;-45
2021/12/02 00:46:21;;;;;;;20.08;10.07;;;-0.10;70.90;;;;;;5057581;28;20061;-45
2021/12/02 00:48:47;;;;;;;19.55;9.45;;;-0.10;71.00;;;;;;5057619;28;20451;-45
2021/12/02 00:51:15;;;;;;;19.70;9.18;;;-0.10;71.10;;;;;;5057510;28;20040;-34
2021/12/02 00:53:44;;;;;;;17.85;8.88;;;-0.10;71.20;;;;;;5057561;28;20029;-34
2021/12/02 00:56:13;;;;;;;16.58;9.38;;;-0.10;71.20;;;;;;5057783;28;20331;-46
2021/12/02 00:58:39;;;;;;;20.70;9.18;;;0.00;71.30;;;;;;5057685;28;20402;-46
2021/12/02 01:01:06;;;;;;;23.80;9.27;;;0.00;71.30;;;;;;5057433;28;20025;-45
2021/12/02 01:03:35;;;;;;;17.40;8.70;;;0.00;71.30;;;;;;5057488;28;20313;-45
2021/12/02 01:06:02;;;;;;;16.77;8.50;;;0.00;71.30;;;;;;5057619;28;20325;-45
2021/12/02 01:08:28;;;;;;;18.88;8.77;;;0.00;71.40;;;;;;5056928;28;20025;-45
2021/12/02 01:10:54;;;;;;;19.95;8.48;;;0.10;71.50;;;;;;5057179;28;20163;-45
2021/12/02 01:13:21;;;;;;;15.40;7.28;;;0.10;71.30;;;;;;5056952;28;20025;-33
2021/12/02 01:15:47;;;;;;;13.63;6.38;;;0.10;71.30;;;;;;5057404;28;20036;-33
2021/12/02 01:18:12;;;;;;;12.82;6.75;;;0.20;71.10;;;;;;5057383;28;20318;-46
2021/12/02 01:20:40;;;;;;;10.48;5.60;;;0.20;71.00;;;;;;5056906;28;20029;-34
2021/12/02 01:23:07;;;;;;;8.93;5.15;;;0.20;70.90;;;;;;5056896;28;20082;-33
2021/12/02 01:25:34;;;;;;;10.80;5.53;;;0.30;70.90;;;;;;5057276;28;20424;-45
2021/12/02 01:28:00;;;;;;;13.40;5.75;;;0.30;70.90;;;;;;5057098;28;20055;-45
2021/12/02 01:30:31;;;;;;;8.93;5.00;;;0.40;70.80;;;;;;5057169;28;20061;-33
2021/12/02 01:33:00;;;;;;;;;;;0.40;70.40;;;;;;5057110;28;20025;-34
2021/12/02 01:35:27;;;;;;;6.13;3.70;;;0.50;70.10;;;;;;5057133;28;19940;-45
2021/12/02 01:37:53;;;;;;;6.95;3.70;;;0.50;69.90;;;;;;5056975;28;20037;-42
2021/12/02 01:40:19;;;;;;;8.13;4.00;;;0.50;69.40;;;;;;5057005;28;20021;-45
2021/12/02 01:42:46;;;;;;;10.88;4.07;;;0.50;69.40;;;;;;5056687;28;20037;-45
2021/12/02 01:45:15;;;;;;;8.45;4.03;;;0.60;68.90;;;;;;5057022;28;20321;-34
2021/12/02 01:47:47;;;;;;;5.78;3.35;;;0.60;68.40;;;;;;5056503;28;20048;-45
2021/12/02 01:50:16;;;;;;;6.40;3.30;;;0.70;67.90;;;;;;5056807;28;20025;-36
2021/12/02 01:52:44;;;;;;;7.40;3.63;;;0.70;67.50;;;;;;5056596;28;20079;-33
2021/12/02 01:55:15;;;;;;;8.30;3.63;;;0.70;67.00;;;;;;5056837;28;20348;-45
2021/12/02 01:58:02;;;;;;;10.23;6.18;;;0.70;66.90;;;;;;5056295;28;20025;-45
2021/12/02 02:00:46;;;;;;;11.05;6.75;;;0.80;66.80;;;;;;5056536;28;20119;-44
2021/12/02 02:03:14;;;;;;;10.43;6.25;;;0.90;66.20;;;;;;5056197;28;20043;-33
2021/12/02 02:05:40;;;;;;;17.77;9.07;;;0.90;65.00;;;;;;5056878;28;20024;-34
2021/12/02 02:08:16;;;;;;;16.65;9.13;;;0.90;64.60;;;;;;5056156;28;20044;-33
2021/12/02 02:10:43;;;;;;;20.00;11.13;;;0.90;64.20;;;;;;5056076;28;20049;-45
2021/12/02 02:13:10;;;;;;;20.25;13.40;;;0.90;64.30;;;;;;5056049;28;20116;-46
2021/12/02 02:15:44;;;;;;;20.80;12.10;;;0.90;64.10;;;;;;5056577;28;20048;-35
2021/12/02 02:20:50;;;;;;;23.63;12.80;;;0.90;63.80;;;;;;5056501;28;20036;-45
2021/12/02 02:23:16;;;;;;;20.42;13.13;;;0.90;63.90;;;;;;5056209;28;20369;-34
2021/12/02 02:25:43;;;;;;;24.65;14.38;;;0.90;64.00;;;;;;5056362;28;20060;-44
2021/12/02 02:28:09;;;;;;;27.05;15.45;;;0.90;63.70;;;;;;5055922;28;20025;-35
2021/12/02 02:30:35;;;;;;;27.40;16.90;;;0.90;63.60;;;;;;5054920;28;20032;-45
2021/12/02 02:33:01;;;;;;;27.25;15.15;;;0.90;63.30;;;;;;5056029;28;20086;-45
2021/12/02 02:35:26;;;;;;;15.27;8.57;;;0.90;63.40;;;;;;5055717;28;20534;-32
2021/12/02 02:37:52;;;;;;;13.48;6.72;;;0.90;63.30;;;;;;5055889;28;20045;-45
2021/12/02 02:40:18;;;;;;;12.88;5.78;;;0.90;62.90;;;;;;5056166;28;20025;-42
2021/12/02 02:42:48;;;;;;;9.65;4.60;;;0.90;62.80;;;;;;5056005;28;20047;-34
2021/12/02 02:45:14;;;;;;;9.80;5.97;;;0.90;62.60;;;;;;5055595;28;20368;-46
2021/12/02 02:47:41;;;;;;;10.52;6.88;;;0.90;62.50;;;;;;5055952;28;20037;-32
2021/12/02 02:50:12;;;;;;;13.00;8.75;;;0.90;62.50;;;;;;5056078;28;20044;-43
2021/12/02 02:52:37;;;;;;;9.98;5.35;;;0.90;62.70;;;;;;5055640;28;20063;-45
2021/12/02 02:55:03;;;;;;;6.15;3.83;;;1.00;62.50;;;;;;5056040;28;20083;-34
2021/12/02 02:57:37;;;;;;;6.28;3.33;;;1.00;62.40;;;;;;5055583;28;20041;-33
2021/12/02 03:00:10;;;;;;;6.38;3.75;;;1.00;62.30;;;;;;5056033;28;20107;-45
2021/12/02 03:05:27;;;;;;;7.32;4.10;;;1.10;62.50;;;;;;5056054;28;20068;-33
2021/12/02 03:07:59;;;;;;;7.75;4.07;;;1.10;62.30;;;;;;5055938;28;20451;-33
2021/12/02 03:13:24;;;;;;;12.07;7.55;;;1.10;62.50;;;;;;5055800;28;20144;-33
2021/12/02 03:18:35;;;;;;;18.08;9.63;;;1.10;62.70;;;;;;5055433;28;20325;-34
2021/12/02 03:21:01;;;;;;;17.88;10.43;;;1.20;62.70;;;;;;5055482;28;20033;-32
2021/12/02 03:23:26;;;;;;;33.65;13.38;;;1.20;62.90;;;;;;5055020;28;20035;-45
2021/12/02 03:25:52;;;;;;;35.28;13.60;;;1.20;62.90;;;;;;5055698;28;20037;-45
2021/12/02 03:28:18;;;;;;;20.10;10.85;;;1.20;63.00;;;;;;5055584;28;20033;-33
2021/12/02 03:30:44;;;;;;;22.42;11.75;;;1.20;63.30;;;;;;5055143;28;20063;-45
2021/12/02 03:33:09;;;;;;;24.52;14.88;;;1.20;63.50;;;;;;5055539;28;20033;-33
2021/12/02 03:35:35;;;;;;;29.98;12.57;;;1.20;63.60;;;;;;5055764;28;20032;-33
2021/12/02 03:38:01;;;;;;;22.75;12.93;;;1.20;63.80;;;;;;5055611;28;20029;-45
2021/12/02 03:40:27;;;;;;;32.55;15.90;;;1.20;64.10;;;;;;5055700;28;20037;-45
2021/12/02 03:42:53;;;;;;;20.88;9.48;;;1.20;64.30;;;;;;5055231;28;20332;-32
2021/12/02 03:45:23;;;;;;;20.70;10.30;;;1.20;64.40;;;;;;5055561;28;20065;-32
2021/12/02 03:47:49;;;;;;;19.40;9.32;;;1.20;64.60;;;;;;5057763;28;20122;-45
2021/12/02 03:50:14;;;;;;;18.58;9.35;;;1.20;64.80;;;;;;5058945;28;20389;-45
2021/12/02 03:52:40;;;;;;;21.33;10.80;;;1.20;65.00;;;;;;5058664;28;20040;-37
2021/12/02 03:55:06;;;;;;;19.88;10.93;;;1.20;65.10;;;;;;5059025;28;20397;-32
2021/12/02 03:57:32;;;;;;;16.42;9.52;;;1.30;65.20;;;;;;5058474;28;20048;-45
2021/12/02 03:59:59;;;;;;;14.40;9.10;;;1.20;65.20;;;;;;5058408;28;20032;-45
2021/12/02 04:02:24;;;;;;;20.50;9.48;;;1.30;65.40;;;;;;5058494;28;20040;-45
2021/12/02 04:04:50;;;;;;;12.95;7.38;;;1.30;65.50;;;;;;5058733;28;20040;-32
2021/12/02 04:07:18;;;;;;;16.83;9.73;;;1.30;65.60;;;;;;5058491;28;20033;-36
2021/12/02 04:09:45;;;;;;;16.48;8.65;;;1.30;65.70;;;;;;5058010;28;20080;-45
2021/12/02 04:12:28;;;;;;;19.27;11.27;;;1.40;65.90;;;;;;5058600;28;20306;-32
2021/12/02 04:15:06;;;;;;;18.63;9.43;;;1.40;66.00;;;;;;5058716;28;20025;-33
2021/12/02 04:17:43;;;;;;;18.27;10.07;;;1.40;66.10;;;;;;5058680;28;20429;-45
2021/12/02 04:20:14;;;;;;;20.00;10.98;;;1.40;66.30;;;;;;5058693;28;20032;-45
2021/12/02 04:22:40;;;;;;;20.15;12.43;;;1.40;66.40;;;;;;5058495;28;20443;-45
2021/12/02 04:25:07;;;;;;;24.70;12.43;;;1.50;66.80;;;;;;5058656;28;20409;-44
2021/12/02 04:27:33;;;;;;;21.70;10.98;;;1.50;66.70;;;;;;5057998;28;20087;-32
2021/12/02 04:29:59;;;;;;;23.27;12.30;;;1.50;66.90;;;;;;5057877;28;20121;-44
2021/12/02 04:32:24;;;;;;;22.85;12.88;;;1.50;67.10;;;;;;5057778;28;20119;-33
2021/12/02 04:34:51;;;;;;;21.75;12.13;;;1.50;67.20;;;;;;5058129;28;20078;-45
2021/12/02 04:37:16;;;;;;;21.33;11.40;;;1.50;67.40;;;;;;5057933;28;20044;-44
2021/12/02 04:39:42;;;;;;;24.45;10.88;;;1.50;67.70;;;;;;5058026;28;20029;-35
2021/12/02 04:42:08;;;;;;;20.33;9.85;;;1.60;67.90;;;;;;5058021;28;20044;-36
2021/12/02 04:44:34;;;;;;;19.42;9.80;;;1.60;68.20;;;;;;5057993;28;20420;-45
2021/12/02 04:47:00;;;;;;;16.48;9.25;;;1.60;68.40;;;;;;5057903;28;20036;-45
2021/12/02 04:49:25;;;;;;;19.98;10.88;;;1.60;68.50;;;;;;5057679;28;20060;-45
2021/12/02 04:51:51;;;;;;;19.83;9.98;;;1.60;68.70;;;;;;5057531;28;20064;-47
2021/12/02 04:54:17;;;;;;;21.63;10.93;;;1.70;68.90;;;;;;5057398;28;20025;-47
2021/12/02 04:56:43;;;;;;;15.82;9.32;;;1.70;69.00;;;;;;5057392;28;20033;-47
2021/12/02 04:59:08;;;;;;;20.65;9.48;;;1.70;69.00;;;;;;5057080;28;20401;-46
2021/12/02 05:01:34;;;;;;;20.33;9.48;;;1.70;69.20;;;;;;5057598;28;20032;-47
2021/12/02 05:04:00;;;;;;;18.73;9.80;;;1.70;69.20;;;;;;5057492;28;20033;-34
2021/12/02 05:06:26;;;;;;;19.83;10.27;;;1.80;69.30;;;;;;5057088;28;20041;-37
2021/12/02 05:08:51;;;;;;;19.15;9.80;;;1.80;69.40;;;;;;5056870;28;20032;-47
2021/12/02 05:11:17;;;;;;;19.30;11.38;;;1.80;69.50;;;;;;5057194;28;20037;-35
2021/12/02 05:13:42;;;;;;;26.48;15.07;;;1.80;69.50;;;;;;5056052;28;20025;-36
2021/12/02 05:16:08;;;;;;;20.88;11.68;;;1.80;69.50;;;;;;5056967;28;20074;-45
2021/12/02 05:18:34;;;;;;;21.45;11.52;;;1.80;69.60;;;;;;5056755;28;20036;-45
2021/12/02 05:21:00;;;;;;;17.15;9.30;;;1.90;69.60;;;;;;5057277;28;20025;-39
2021/12/02 05:23:25;;;;;;;19.33;10.73;;;1.90;69.70;;;;;;5057160;28;20029;-33
2021/12/02 05:25:51;;;;;;;17.15;9.38;;;1.90;69.80;;;;;;5056919;28;20420;-45
2021/12/02 05:28:18;;;;;;;17.15;9.73;;;1.90;69.90;;;;;;5056862;28;20337;-33
2021/12/02 05:30:45;;;;;;;17.90;9.73;;;1.90;69.90;;;;;;5056845;28;20078;-44
2021/12/02 05:33:10;;;;;;;20.20;10.90;;;1.90;70.00;;;;;;5056931;28;20352;-44
2021/12/02 05:35:36;;;;;;;15.20;9.35;;;2.00;70.00;;;;;;5056323;28;20039;-33
2021/12/02 05:38:02;;;;;;;15.32;9.52;;;2.00;70.10;;;;;;5056342;28;20118;-34
2021/12/02 05:40:28;;;;;;;17.42;10.52;;;2.00;70.10;;;;;;5056666;28;20029;-33
2021/12/02 05:42:53;;;;;;;20.42;10.80;;;2.00;70.20;;;;;;5056805;28;20052;-45
2021/12/02 05:45:19;;;;;;;20.55;11.75;;;2.00;70.10;;;;;;5056518;28;20402;-35
2021/12/02 05:47:45;;;;;;;19.23;10.60;;;2.10;70.30;;;;;;5056551;28;20343;-45
2021/12/02 05:50:10;;;;;;;17.48;10.27;;;2.10;70.40;;;;;;5056447;28;20033;-45
2021/12/02 05:52:36;;;;;;;27.50;14.10;;;2.20;70.60;;;;;;5056322;28;20033;-33
2021/12/02 05:55:02;;;;;;;16.65;10.05;;;2.20;70.60;;;;;;5056420;28;20305;-33
2021/12/02 05:57:28;;;;;;;19.23;10.85;;;2.20;70.60;;;;;;5056155;28;20354;-33
2021/12/02 05:59:54;;;;;;;19.50;10.77;;;2.20;70.80;;;;;;5056405;28;20067;-33
2021/12/02 06:02:20;;;;;;;19.80;10.63;;;2.30;71.00;;;;;;5056136;28;20425;-45
2021/12/02 06:04:50;;;;;;;17.85;10.73;;;2.20;71.30;;;;;;5056424;28;20400;-33
2021/12/02 06:07:16;;;;;;;18.58;10.40;;;2.30;71.30;;;;;;5056237;28;20325;-34
2021/12/02 06:09:41;;;;;;;20.33;10.95;;;2.30;71.30;;;;;;5055130;28;20057;-33
2021/12/02 06:12:07;;;;;;;24.13;12.77;;;2.30;71.50;;;;;;5055843;28;20116;-45
2021/12/02 06:14:33;;;;;;;19.17;10.55;;;2.30;71.60;;;;;;5055964;28;20440;-32
2021/12/02 06:16:58;;;;;;;21.17;11.43;;;2.30;71.70;;;;;;5056162;28;20025;-36
2021/12/02 06:19:24;;;;;;;23.77;11.25;;;2.30;71.70;;;;;;5055857;28;20056;-33
2021/12/02 06:21:51;;;;;;;24.35;13.38;;;2.30;71.80;;;;;;5055797;28;20033;-35
2021/12/02 06:24:17;;;;;;;23.00;11.90;;;2.40;71.90;;;;;;5052357;28;20025;-33
2021/12/02 06:26:42;;;;;;;21.42;11.20;;;2.40;71.90;;;;;;5043309;28;20032;-45
2021/12/02 06:29:08;;;;;;;23.23;11.77;;;2.40;71.90;;;;;;5035374;28;20037;-33
2021/12/02 06:31:34;;;;;;;18.88;10.68;;;2.50;72.00;;;;;;5035086;28;20056;-32
2021/12/02 06:34:00;;;;;;;20.38;11.35;;;2.40;71.90;;;;;;5035165;28;20029;-33
2021/12/02 06:36:25;;;;;;;23.42;11.63;;;2.50;72.00;;;;;;5035052;28;20076;-33
2021/12/02 06:38:51;;;;;;;21.65;11.32;;;2.50;72.10;;;;;;5035429;28;20033;-45
2021/12/02 06:41:18;;;;;;;21.83;12.45;;;2.50;72.10;;;;;;5034914;28;20021;-45
2021/12/02 06:43:44;;;;;;;19.52;12.00;;;2.60;72.20;;;;;;5035220;28;20368;-45
2021/12/02 06:46:10;;;;;;;19.42;11.20;;;2.60;72.10;;;;;;5035290;28;20040;-45
2021/12/02 06:48:36;;;;;;;18.95;10.60;;;2.60;72.10;;;;;;5035005;28;20034;-45
2021/12/02 06:51:02;;;;;;;17.30;9.95;;;2.60;72.00;;;;;;5035033;28;20033;-35
2021/12/02 06:53:27;;;;;;;17.30;10.20;;;2.60;72.00;;;;;;5034690;28;20021;-32
2021/12/02 06:55:53;;;;;;;19.30;9.98;;;2.60;72.10;;;;;;5035299;28;20057;-34
2021/12/02 06:58:19;;;;;;;21.83;11.13;;;2.70;72.10;;;;;;5034843;28;20097;-46
2021/12/02 07:00:44;;;;;;;20.27;11.40;;;2.70;72.20;;;;;;5034012;28;20482;-45
2021/12/02 07:03:10;;;;;;;22.35;11.90;;;2.70;72.20;;;;;;5035274;28;20071;-36
2021/12/02 07:05:36;;;;;;;16.75;9.60;;;2.70;72.20;;;;;;5034888;28;20050;-35
2021/12/02 07:08:02;;;;;;;20.92;11.02;;;2.80;72.30;;;;;;5035039;28;20044;-35
2021/12/02 07:10:30;;;;;;;19.90;10.90;;;2.80;72.30;;;;;;5034620;28;20057;-46
2021/12/02 07:12:57;;;;;;;19.90;11.27;;;2.80;72.30;;;;;;5034983;28;20116;-45
2021/12/02 07:15:29;;;;;;;17.33;11.02;;;2.80;72.30;;;;;;5035141;28;20037;-33
2021/12/02 07:17:59;;;;;;;17.27;10.13;;;2.80;72.40;;;;;;5034983;28;20084;-46
2021/12/02 07:20:27;;;;;;;17.75;10.27;;;2.80;72.50;;;;;;5035293;28;20260;-43
2021/12/02 07:22:53;;;;;;;18.05;10.35;;;2.80;72.60;;;;;;5038744;28;20333;-45
2021/12/02 07:25:19;;;;;;;22.58;11.43;;;2.70;72.70;;;;;;5037169;28;20037;-33
2021/12/02 07:27:44;;;;;;;25.38;12.57;;;2.80;72.80;;;;;;5038638;28;20040;-35
2021/12/02 07:30:10;;;;;;;20.15;10.73;;;2.80;73.00;;;;;;5038903;28;20368;-33
2021/12/02 07:32:39;;;;;;;20.58;10.80;;;2.80;73.00;;;;;;5038800;28;20056;-33
2021/12/02 07:35:13;;;;;;;21.50;11.48;;;2.80;73.20;;;;;;5038626;28;20026;-45
2021/12/02 07:37:44;;;;;;;20.30;11.00;;;2.90;73.30;;;;;;5037950;28;20383;-45
2021/12/02 07:40:11;;;;;;;17.65;10.77;;;2.90;73.20;;;;;;5038634;28;20104;-45
2021/12/02 07:42:37;;;;;;;18.20;10.52;;;3.00;73.40;;;;;;5038403;28;20136;-32
2021/12/02 07:45:05;;;;;;;18.40;10.27;;;3.00;73.40;;;;;;5038574;28;20025;-33
2021/12/02 07:47:33;;;;;;;16.60;10.30;;;3.10;73.30;;;;;;5038465;28;20033;-33
2021/12/02 07:49:58;;;;;;;17.35;10.10;;;3.10;73.30;;;;;;5038509;28;20028;-33
2021/12/02 07:52:25;;;;;;;18.77;10.77;;;3.10;73.20;;;;;;5037966;28;20353;-43
2021/12/02 07:54:52;;;;;;;28.98;11.15;;;3.10;73.30;;;;;;5038382;28;20029;-34
2021/12/02 07:57:19;;;;;;;20.13;11.45;;;3.20;73.40;;;;;;5037844;28;20429;-45
2021/12/02 07:59:48;;;;;;;24.63;16.15;;;3.20;73.40;;;;;;5038356;28;20415;-45
2021/12/02 08:02:16;;;;;;;15.82;9.50;;;3.20;73.50;;;;;;5037930;28;20038;-33
2021/12/02 08:04:41;;;;;;;16.05;10.00;;;3.30;73.60;;;;;;5038269;28;20532;-45
2021/12/02 08:07:07;;;;;;;16.58;9.68;;;3.30;73.70;;;;;;5037894;28;20037;-33
2021/12/02 08:09:33;;;;;;;16.33;10.07;;;3.30;73.70;;;;;;5037308;28;20133;-33
2021/12/02 08:12:00;;;;;;;17.45;9.57;;;3.40;73.80;;;;;;5037937;28;20036;-46
2021/12/02 08:14:26;;;;;;;16.05;9.55;;;3.50;73.80;;;;;;5038076;28;20440;-35
2021/12/02 08:16:52;;;;;;;18.55;10.02;;;3.50;73.80;;;;;;5037977;28;20037;-46
2021/12/02 08:19:19;;;;;;;20.20;11.48;;;3.50;73.70;;;;;;5038173;28;20087;-35
2021/12/02 08:21:45;;;;;;;19.92;11.30;;;3.60;73.80;;;;;;5038080;28;20112;-46
2021/12/02 08:24:11;;;;;;;18.15;10.20;;;3.60;73.90;;;;;;5037877;28;20145;-46
2021/12/02 08:26:37;;;;;;;19.58;10.35;;;3.60;73.90;;;;;;5037953;28;20088;-35
2021/12/02 08:29:04;;;;;;;16.67;9.68;;;3.60;74.10;;;;;;5038025;28;20034;-46
2021/12/02 08:31:30;;;;;;;18.77;10.55;;;3.60;74.90;;;;;;5037623;28;20379;-46
2021/12/02 08:33:56;;;;;;;19.02;10.55;;;3.70;74.50;;;;;;5037088;28;20056;-33
2021/12/02 08:36:26;;;;;;;16.40;9.38;;;3.70;74.50;;;;;;5038009;28;20048;-46
2021/12/02 08:38:52;;;;;;;19.80;10.23;;;3.70;74.50;;;;;;5037136;28;20041;-46
2021/12/02 08:41:18;;;;;;;14.43;8.55;;;3.70;74.70;;;;;;5037849;28;20084;-46
2021/12/02 08:43:45;;;;;;;15.35;9.55;;;3.80;74.90;;;;;;5037670;28;20060;-46
2021/12/02 08:46:10;;;;;;;16.63;9.50;;;3.80;75.00;;;;;;5037890;28;20029;-45
2021/12/02 08:48:36;;;;;;;21.80;11.13;;;3.80;75.10;;;;;;5037399;28;20406;-35
2021/12/02 08:51:02;;;;;;;16.10;9.60;;;3.90;75.20;;;;;;5037767;28;20048;-46
2021/12/02 08:53:27;;;;;;;17.60;9.90;;;3.90;75.30;;;;;;5037219;28;20041;-35
2021/12/02 08:55:53;;;;;;;14.55;8.57;;;4.00;75.30;;;;;;5037214;28;20044;-42
2021/12/02 08:58:19;;;;;;;16.08;9.55;;;4.00;75.40;;;;;;5037476;28;20029;-46
2021/12/02 09:00:46;;;;;;;14.40;9.50;;;4.00;75.50;;;;;;5037824;28;20040;-46
2021/12/02 09:03:14;;;;;;;16.48;9.18;;;4.10;75.60;;;;;;5037347;28;20029;-46
2021/12/02 09:05:40;;;;;;;15.23;8.95;;;4.10;75.60;;;;;;5036856;28;20476;-34
2021/12/02 09:08:06;;;;;;;14.60;8.77;;;4.10;75.60;;;;;;5037019;28;20025;-34
2021/12/02 09:10:34;;;;;;;18.67;9.00;;;4.10;75.70;;;;;;5036790;28;20053;-34
2021/12/02 09:13:03;;;;;;;13.45;8.95;;;4.20;75.80;;;;;;5036899;28;20425;-34
2021/12/02 09:15:29;;;;;;;14.90;8.50;;;4.20;75.90;;;;;;5037319;28;20029;-46
2021/12/02 09:17:55;;;;;;;16.15;9.32;;;4.20;75.90;;;;;;5037102;28;20029;-37
2021/12/02 09:20:21;;;;;;;15.93;9.77;;;4.30;76.10;;;;;;5037343;28;20022;-33
2021/12/02 09:22:47;;;;;;;15.38;9.63;;;4.30;76.20;;;;;;5036960;28;20303;-45
2021/12/02 09:25:16;;;;;;;14.70;9.30;;;4.30;76.20;;;;;;5037261;28;20033;-46
2021/12/02 09:27:42;;;;;;;19.65;10.27;;;4.40;76.30;;;;;;5036749;28;20503;-33
2021/12/02 09:30:08;;;;;;;17.50;10.85;;;4.40;76.30;;;;;;5036868;28;20174;-33
2021/12/02 09:32:34;;;;;;;20.70;12.55;;;4.40;76.30;;;;;;5036670;28;20132;-33
2021/12/02 09:35:00;;;;;;;15.90;9.07;;;4.50;76.30;;;;;;5036830;28;20152;-46
2021/12/02 09:37:26;;;;;;;18.90;8.63;;;4.50;76.40;;;;;;5036569;28;20041;-46
2021/12/02 09:39:52;;;;;;;17.58;9.88;;;4.50;76.40;;;;;;5036883;28;20033;-33
2021/12/02 09:42:19;;;;;;;18.85;11.50;;;4.50;76.40;;;;;;5036814;28;20493;-46
2021/12/02 09:44:47;;;;;;;16.05;9.20;;;4.60;76.50;;;;;;5036778;28;20042;-46
2021/12/02 09:47:13;;;;;;;17.60;9.43;;;4.60;76.50;;;;;;5036249;28;20434;-46
2021/12/02 09:49:39;;;;;;;16.60;9.90;;;4.60;76.60;;;;;;5036325;28;20040;-34
2021/12/02 09:52:09;;;;;;;16.10;9.75;;;4.60;76.60;;;;;;5036495;28;20407;-36
2021/12/02 09:54:58;;;;;;;16.80;10.10;;;4.60;76.60;;;;;;5036225;28;20405;-36
2021/12/02 09:57:28;;;;;;;15.93;9.65;;;4.70;76.70;;;;;;5048320;28;20025;-35
2021/12/02 09:59:55;;;;;;;17.45;10.30;;;4.70;76.60;;;;;;5054896;28;20025;-43
2021/12/02 10:02:22;;;;;;;15.95;9.30;;;4.70;76.60;;;;;;5055858;28;20032;-36
2021/12/02 10:07:46;;;;;;;30.70;14.02;;;4.80;76.70;;;;;;5055666;28;20029;-46
2021/12/02 10:12:48;;;;;;;17.02;9.77;;;4.80;76.80;;;;;;5055563;28;20134;-34
2021/12/02 10:15:16;;;;;;;16.60;9.32;;;4.80;76.80;;;;;;5055873;28;20388;-34
2021/12/02 10:17:46;;;;;;;16.63;10.10;;;4.80;76.90;;;;;;5055531;28;20082;-46
2021/12/02 10:23:17;;;;;;;17.13;10.25;;;4.90;77.20;;;;;;5055928;28;20036;-34
2021/12/02 10:25:46;;;;;;;17.77;8.98;;;4.90;77.20;;;;;;5055305;28;20032;-47
2021/12/02 10:28:14;;;;;;;17.48;9.15;;;4.90;77.40;;;;;;5055566;28;20471;-35
2021/12/02 10:30:49;;;;;;;17.83;9.65;;;5.00;77.60;;;;;;5054958;28;20044;-46
2021/12/02 10:33:27;;;;;;;13.80;8.35;;;5.00;77.60;;;;;;5055158;28;20025;-46
2021/12/02 10:35:53;;;;;;;17.27;9.50;;;5.10;77.70;;;;;;5055300;28;20033;-46
2021/12/02 10:38:36;;;;;;;20.20;11.18;;;5.10;77.70;;;;;;5055576;28;20032;-46
2021/12/02 10:41:17;;;;;;;16.90;9.40;;;5.30;77.60;;;;;;5055895;28;20043;-46
2021/12/02 10:44:17;;;;;;;19.85;10.35;;;5.30;77.30;;;;;;5055400;28;20025;-33
2021/12/02 10:47:01;;;;;;;15.88;8.23;;;5.40;77.30;;;;;;5054214;28;20437;-36
2021/12/02 10:49:38;;;;;;;19.98;10.07;;;5.50;77.30;;;;;;5055630;28;20094;-46
2021/12/02 10:52:06;;;;;;;19.55;10.70;;;5.60;77.30;;;;;;5055690;28;20378;-36
2021/12/02 10:54:34;;;;;;;27.55;10.15;;;5.70;77.10;;;;;;5055524;28;20041;-46
2021/12/02 10:57:07;;;;;;;16.20;9.27;;;5.90;76.50;;;;;;5058430;28;20029;-46
2021/12/02 11:00:02;;;;;;;23.38;11.13;;;6.00;76.20;;;;;;5059675;28;20309;-36
2021/12/02 11:02:30;;;;;;;16.80;8.85;;;6.20;75.80;;;;;;5059099;28;20079;-46
2021/12/02 11:05:01;;;;;;;14.50;9.13;;;6.20;75.00;;;;;;5058588;28;20436;-34
2021/12/02 11:07:39;;;;;;;18.42;9.10;;;6.30;74.80;;;;;;5059471;28;20482;-34
2021/12/02 11:10:09;;;;;;;18.52;9.68;;;6.40;74.60;;;;;;5059234;28;20071;-33
2021/12/02 11:12:40;;;;;;;17.15;9.43;;;6.50;74.50;;;;;;5059446;28;20037;-34
2021/12/02 11:15:20;;;;;;;21.27;13.75;;;6.50;74.70;;;;;;5059823;28;20112;-34
2021/12/02 11:17:46;;;;;;;17.20;9.50;;;6.50;74.50;;;;;;5059345;28;20440;-46
2021/12/02 11:20:43;;;;;;;16.95;8.90;;;6.60;74.30;;;;;;5059472;28;20068;-34
2021/12/02 11:23:18;;;;;;;21.42;12.30;;;6.60;74.10;;;;;;5059335;28;20335;-46
2021/12/02 11:25:57;;;;;;;13.15;7.88;;;6.60;74.10;;;;;;5058895;28;20060;-37
2021/12/02 11:28:24;;;;;;;13.45;8.05;;;6.60;73.90;;;;;;5059047;28;20044;-33
2021/12/02 11:30:51;;;;;;;15.45;8.63;;;6.70;74.10;;;;;;5058788;28;20028;-46
2021/12/02 11:33:19;;;;;;;17.30;8.82;;;6.70;74.00;;;;;;5057673;28;20060;-36
2021/12/02 11:35:47;;;;;;;16.25;9.05;;;6.80;74.50;;;;;;5058993;28;20103;-46
2021/12/02 11:38:21;;;;;;;16.35;9.40;;;6.80;73.80;;;;;;5058621;28;20078;-46
2021/12/02 11:40:57;;;;;;;15.93;9.27;;;6.80;73.70;;;;;;5058460;28;20047;-34
2021/12/02 11:43:33;;;;;;;19.80;11.20;;;6.90;73.70;;;;;;5058411;28;20081;-37
2021/12/02 11:46:01;;;;;;;15.10;8.75;;;6.90;73.60;;;;;;5058564;28;20091;-34
2021/12/02 11:48:31;;;;;;;19.02;8.20;;;6.90;73.60;;;;;;5058222;28;20029;-46
2021/12/02 11:51:03;;;;;;;13.95;8.60;;;6.90;73.70;;;;;;5058592;28;20029;-34
2021/12/02 11:53:29;;;;;;;23.10;11.48;;;6.90;73.80;;;;;;5057338;28;20029;-34
2021/12/02 11:56:04;;;;;;;19.17;10.75;;;6.90;74.00;;;;;;5058590;28;20085;-46
2021/12/02 11:58:30;;;;;;;19.35;9.68;;;6.90;74.20;;;;;;5058408;28;20017;-38
2021/12/02 12:00:56;;;;;;;25.85;8.65;;;6.90;74.10;;;;;;5058595;28;20029;-46
2021/12/02 12:03:32;;;;;;;16.70;9.38;;;6.90;74.00;;;;;;5058168;28;20036;-46
2021/12/02 12:06:07;;;;;;;19.85;8.52;;;7.00;74.10;;;;;;5058187;28;20441;-45
2021/12/02 12:08:32;;;;;;;13.43;8.48;;;7.00;74.10;;;;;;5056940;28;20421;-33
2021/12/02 12:11:17;;;;;;;14.13;8.05;;;7.10;74.10;;;;;;5058002;28;20052;-45
2021/12/02 12:13:46;;;;;;;14.35;8.50;;;7.10;73.80;;;;;;5058324;28;20036;-44
2021/12/02 12:16:30;;;;;;;14.20;8.07;;;7.10;73.70;;;;;;5058226;28;20439;-34
2021/12/02 12:19:13;;;;;;;18.00;9.23;;;7.10;73.60;;;;;;5058325;28;20113;-35
2021/12/02 12:21:41;;;;;;;21.25;9.73;;;7.10;73.60;;;;;;5057879;28;20029;-34
2021/12/02 12:24:08;;;;;;;17.25;9.20;;;7.10;73.60;;;;;;5057807;28;20036;-34
2021/12/02 12:26:41;;;;;;;16.27;9.00;;;7.10;73.70;;;;;;5058188;28;20025;-33
2021/12/02 12:29:09;;;;;;;14.02;9.25;;;7.10;73.90;;;;;;5058154;28;20033;-34
2021/12/02 12:32:06;;;;;;;20.58;10.70;;;7.00;73.90;;;;;;5057645;28;20033;-34
2021/12/02 12:34:43;;;;;;;15.10;8.80;;;7.00;74.10;;;;;;5057737;28;20049;-33
2021/12/02 12:37:24;;;;;;;14.98;8.82;;;7.00;74.10;;;;;;5057811;28;20452;-40
2021/12/02 12:40:17;;;;;;;14.18;8.35;;;6.90;74.30;;;;;;5057968;28;20040;-35
2021/12/02 12:42:51;;;;;;;14.82;8.30;;;6.90;74.40;;;;;;5056406;28;20326;-46
2021/12/02 12:45:43;;;;;;;12.27;8.18;;;6.90;74.60;;;;;;5057696;28;20308;-37
2021/12/02 12:48:31;;;;;;;15.30;8.05;;;6.90;74.80;;;;;;5057791;28;20028;-45
2021/12/02 12:51:30;;;;;;;18.40;8.70;;;6.80;75.00;;;;;;5057465;28;20032;-33
2021/12/02 12:53:58;;;;;;;17.15;8.38;;;6.70;75.20;;;;;;5056086;28;20053;-43
2021/12/02 12:56:39;;;;;;;16.85;8.25;;;6.70;75.60;;;;;;5057379;28;20114;-45
2021/12/02 12:59:07;;;;;;;14.52;7.85;;;6.60;75.80;;;;;;5057419;28;20033;-45
2021/12/02 13:01:34;;;;;;;17.58;8.13;;;6.60;75.80;;;;;;5057376;28;20032;-45
2021/12/02 13:04:21;;;;;;;16.10;8.77;;;6.60;75.90;;;;;;5057278;28;20025;-45
2021/12/02 13:07:02;;;;;;;19.52;9.10;;;6.60;76.00;;;;;;5057418;28;20025;-33
2021/12/02 13:09:42;;;;;;;12.48;7.90;;;6.60;76.10;;;;;;5056987;28;20099;-45
2021/12/02 13:12:12;;;;;;;15.50;9.37;;;6.60;76.30;;;;;;5056784;28;20417;-45